Keystone, IN (46759)

9:57 PM EDT on August 31, 2016 (GMT -0400)
Rigby Timbers | | Change Station

Elev 856 ft 40.78 °N, 85.17 °W | Updated 11 minutes ago

Mostly Cloudy
Mostly Cloudy
70.9 °F
Feels Like 70.9 °F
N
1.1
Wind Variable Wind from WNW

Today
High -- | Low -- °F
--% Chance of Precip.
Yesterday
High -- | Low -- °F
Precip. -- in
Pressure 30.02 in
Visibility 10.0 miles
Clouds Few 3200 ft
Mostly Cloudy 20000 ft
Dew Point 68 °F
Humidity 92%
Rainfall 0.00 in
Snow Depth Not available.
7:07 AM 8:13 PM
Waning Crescent, 0% visible
METAR KFWA 010154Z 03011KT 10SM FEW032 BKN200 22/18 A3003 RMK AO2 SLP164 T02220178
Pressure 30.02 in
Visibility 10.0 miles
Clouds Few 3200 ft
Mostly Cloudy 20000 ft
Dew Point 68 °F
Humidity 92%
Rainfall 0.00 in
Snow Depth Not available.
7:07 AM 8:13 PM
Waning Crescent, 0% visible
METAR KFWA 010154Z 03011KT 10SM FEW032 BKN200 22/18 A3003 RMK AO2 SLP164 T02220178

10-Day Weather Forecast

Almanac

Astronomy

Aug. 31, 2016 Rise Set
Actual Time
Civil Twilight
Nautical Twilight
Astronomical Twilight
Moon
Length of Visible Light
Length of Day
Tomorrow will be .
, % of the Moon is Illuminated

Today's Extremes

State Highs State Lows

Community

WunderPhotos

Upload Photos

1,936,266 photos uploaded!

WunderBlog® & News

Nearby

Air Quality

  Air Quality AQ Index Pollutant
Not available.

Snow Depth

Station Depth Elevation

Earthquake Activity

City Distance Mag. Time & Date
Minimum magnitude displayed is 2.5.

Coastal Water Temperatures

Place Temperature

Stations

Nearby Weather Stations

Station Location Temp. Windchill Dew Point Humidity Wind Precip. Elev Updated Type
                   

Watches & Warnings

There are currently no watches in effect.